Airport ID:KH71
Update Time (UTC):19/11/2018 17:11
Wind Speed (Knots):0
Wind Direction (Magnetic):240
Temperature (°C):22
Dew Point (°C):0
Humidity (%):24
Altimeter (inHg):30.74
Density Altitude (Feet):
Visibility (Miles):5
Clouds (Hundreds of feet):CLR
Present Weather:HZ
METAR:METAR KH71 191710Z AUTO 00000KT 5SM HZ CLR 22/00 A3074 RMK AO2

The data displayed is for advisory purposes only and is not to be used for flight planning or operations.

This page is not automatically refreshed. Reload the page to see current data.